Time;durP1;ratioP1;P1;durP2;ratioP2;P2;SDS_P1;SDS_P2;PMS_P1;PMS_P2;Temp;Humidity;BMP_temperature;BMP_pressure;BME280_temperature;BME280_humidity;BME280_pressure;Samples;Min_cycle;Max_cycle;Signal;HPM_P1;HPM_P2
2021/07/07 00:00:58;;;;;;;1.95;1.20;;;17.80;99.90;;;;;;2106438;28;20039;-68
2021/07/07 00:01:59;;;;;;;4.75;1.65;;;17.80;99.90;;;;;;2105893;28;20020;-68
2021/07/07 00:02:59;;;;;;;5.88;1.90;;;17.80;99.90;;;;;;2106618;28;20044;-68
2021/07/07 00:04:00;;;;;;;1.92;1.42;;;17.80;99.90;;;;;;2106742;28;20024;-68
2021/07/07 00:05:01;;;;;;;3.00;1.45;;;17.80;99.90;;;;;;2106432;28;20448;-68
2021/07/07 00:06:01;;;;;;;5.05;1.90;;;17.80;99.90;;;;;;2106414;28;20411;-68
2021/07/07 00:07:02;;;;;;;2.75;1.60;;;17.80;99.90;;;;;;2106680;28;20050;-68
2021/07/07 00:08:03;;;;;;;1.88;1.20;;;17.80;99.90;;;;;;2106261;28;20031;-68
2021/07/07 00:09:04;;;;;;;3.35;1.55;;;17.80;99.90;;;;;;2106635;28;20039;-68
2021/07/07 00:10:08;;;;;;;4.38;1.60;;;17.70;99.90;;;;;;2106382;28;20024;-68
2021/07/07 00:11:08;;;;;;;1.67;1.23;;;17.70;99.90;;;;;;2106877;28;20040;-68
2021/07/07 00:12:09;;;;;;;3.40;1.48;;;17.70;99.90;;;;;;2105939;28;20016;-68
2021/07/07 00:13:10;;;;;;;3.53;1.95;;;17.70;99.90;;;;;;2106363;28;20012;-68
2021/07/07 00:14:10;;;;;;;4.00;1.95;;;17.70;99.90;;;;;;2106478;28;20024;-68
2021/07/07 00:15:14;;;;;;;4.57;1.65;;;17.70;99.90;;;;;;2106944;28;20028;-68
2021/07/07 00:16:15;;;;;;;2.97;1.65;;;17.70;99.90;;;;;;2106316;28;20020;-68
2021/07/07 00:17:15;;;;;;;3.22;1.63;;;17.70;99.90;;;;;;2106484;28;20098;-68
2021/07/07 00:18:16;;;;;;;4.65;1.70;;;17.70;99.90;;;;;;2106324;28;20454;-68
2021/07/07 00:19:16;;;;;;;5.28;1.83;;;17.70;99.90;;;;;;2106657;28;20122;-68
2021/07/07 00:20:19;;;;;;;2.80;1.63;;;17.60;99.90;;;;;;2106450;28;20030;-68
2021/07/07 00:21:20;;;;;;;4.43;1.50;;;17.60;99.90;;;;;;2106607;28;20081;-68
2021/07/07 00:22:20;;;;;;;8.25;1.75;;;17.60;99.90;;;;;;2106142;28;20473;-68
2021/07/07 00:23:25;;;;;;;4.82;1.60;;;17.60;99.90;;;;;;2106392;28;20036;-68
2021/07/07 00:24:27;;;;;;;2.10;1.30;;;17.60;99.90;;;;;;2106501;28;20032;-68
2021/07/07 00:25:28;;;;;;;4.55;1.40;;;17.60;99.90;;;;;;2106284;28;20123;-68
2021/07/07 00:26:28;;;;;;;2.70;1.40;;;17.60;99.90;;;;;;2106357;28;20039;-68
2021/07/07 00:27:31;;;;;;;2.22;1.48;;;17.60;99.90;;;;;;2106578;28;20407;-68
2021/07/07 00:28:32;;;;;;;2.15;1.38;;;17.60;99.90;;;;;;2106219;28;20028;-68
2021/07/07 00:29:32;;;;;;;2.13;1.40;;;17.60;99.90;;;;;;2106544;28;20024;-68
2021/07/07 00:30:33;;;;;;;3.20;1.48;;;17.60;99.90;;;;;;2106401;28;20030;-68
2021/07/07 00:31:34;;;;;;;4.53;1.67;;;17.60;99.90;;;;;;2105875;28;20078;-68
2021/07/07 00:32:34;;;;;;;4.03;1.58;;;17.50;99.90;;;;;;2106331;28;20028;-68
2021/07/07 00:33:35;;;;;;;4.38;1.10;;;17.60;99.90;;;;;;2106364;28;20059;-68
2021/07/07 00:34:36;;;;;;;3.58;1.45;;;17.50;99.90;;;;;;2106329;28;20556;-68
2021/07/07 00:35:36;;;;;;;6.35;2.30;;;17.50;99.90;;;;;;2106329;28;20085;-68
2021/07/07 00:36:37;;;;;;;3.85;1.60;;;17.50;99.90;;;;;;2106183;28;20407;-68
2021/07/07 00:37:38;;;;;;;4.65;1.55;;;17.50;99.90;;;;;;2106601;28;20471;-68
2021/07/07 00:38:39;;;;;;;1.42;1.30;;;17.50;99.90;;;;;;2106000;28;20028;-68
2021/07/07 00:39:40;;;;;;;3.25;1.33;;;17.50;99.90;;;;;;2106410;28;20027;-68
2021/07/07 00:40:42;;;;;;;5.82;1.90;;;17.50;99.90;;;;;;2106296;28;20020;-68
2021/07/07 00:41:42;;;;;;;1.98;1.23;;;17.50;99.90;;;;;;2105967;28;20036;-68
2021/07/07 00:42:43;;;;;;;4.05;1.20;;;17.50;99.90;;;;;;2106096;28;20032;-68
2021/07/07 00:43:44;;;;;;;3.47;1.42;;;17.50;99.90;;;;;;2106202;28;20024;-68
2021/07/07 00:44:44;;;;;;;7.40;1.80;;;17.50;99.90;;;;;;2106136;28;20020;-68
2021/07/07 00:45:45;;;;;;;3.80;1.65;;;17.50;99.90;;;;;;2106211;28;20020;-68
2021/07/07 00:46:46;;;;;;;2.83;1.55;;;17.40;99.90;;;;;;2106315;28;20028;-68
2021/07/07 00:47:47;;;;;;;2.85;1.55;;;17.40;99.90;;;;;;2106336;28;20032;-68
2021/07/07 00:48:48;;;;;;;3.75;1.90;;;17.40;99.90;;;;;;2106302;28;20028;-68
2021/07/07 00:49:48;;;;;;;3.60;1.60;;;17.40;99.90;;;;;;2106314;28;20020;-68
2021/07/07 00:50:50;;;;;;;2.28;1.40;;;17.40;99.90;;;;;;2106386;28;20020;-68
2021/07/07 00:51:50;;;;;;;3.95;1.40;;;17.40;99.90;;;;;;2105544;28;20036;-68
2021/07/07 00:52:51;;;;;;;3.80;1.48;;;17.40;99.90;;;;;;2106290;28;20043;-68
2021/07/07 00:53:55;;;;;;;3.63;1.70;;;17.40;99.90;;;;;;2105905;28;20055;-68
2021/07/07 00:54:56;;;;;;;2.63;1.50;;;17.40;99.90;;;;;;2106463;28;20508;-68
2021/07/07 00:55:58;;;;;;;5.13;1.55;;;17.40;99.90;;;;;;2106140;28;20085;-68
2021/07/07 00:57:00;;;;;;;2.80;1.83;;;17.40;99.90;;;;;;2106492;28;20031;-68
2021/07/07 00:58:01;;;;;;;3.05;1.73;;;17.30;99.90;;;;;;2106168;28;20421;-68
2021/07/07 00:59:03;;;;;;;3.03;1.45;;;17.40;99.90;;;;;;2105982;28;20038;-68
2021/07/07 01:00:11;;;;;;;1.45;1.23;;;17.30;99.90;;;;;;2106134;28;20024;-68
2021/07/07 01:01:12;;;;;;;3.03;1.48;;;17.30;99.90;;;;;;2106665;28;20043;-68
2021/07/07 01:02:17;;;;;;;5.32;1.63;;;17.30;99.90;;;;;;2105472;28;20478;-68
2021/07/07 01:03:18;;;;;;;4.65;1.50;;;17.30;99.90;;;;;;2106275;28;20042;-68
2021/07/07 01:04:18;;;;;;;3.38;1.40;;;17.30;99.90;;;;;;2105785;28;20092;-68
2021/07/07 01:05:19;;;;;;;2.33;1.33;;;17.30;99.90;;;;;;2102971;28;20441;-68
2021/07/07 01:06:19;;;;;;;4.55;1.67;;;17.30;99.90;;;;;;2104748;28;20119;-68
2021/07/07 01:07:20;;;;;;;2.88;1.35;;;17.30;99.90;;;;;;2105365;28;20063;-68
2021/07/07 01:08:20;;;;;;;2.97;1.33;;;17.30;99.90;;;;;;2106224;28;20534;-68
2021/07/07 01:09:21;;;;;;;3.80;1.58;;;17.30;99.90;;;;;;2105891;28;20085;-68
2021/07/07 01:10:22;;;;;;;4.57;1.50;;;17.30;99.90;;;;;;2106199;28;20433;-68
2021/07/07 01:11:22;;;;;;;4.55;1.77;;;17.30;99.90;;;;;;2105667;28;20109;-68
2021/07/07 01:12:23;;;;;;;2.75;1.75;;;17.20;99.90;;;;;;2105970;28;20020;-68
2021/07/07 01:13:24;;;;;;;5.10;1.83;;;17.20;99.90;;;;;;2106083;28;20028;-68
2021/07/07 01:14:24;;;;;;;3.25;1.70;;;17.20;99.90;;;;;;2106209;28;20379;-68
2021/07/07 01:15:25;;;;;;;4.85;2.10;;;17.20;99.90;;;;;;2105614;28;20032;-68
2021/07/07 01:16:27;;;;;;;3.10;1.55;;;17.20;99.90;;;;;;2106206;28;20028;-68
2021/07/07 01:17:32;;;;;;;2.05;1.75;;;17.20;99.90;;;;;;2106017;28;20024;-68
2021/07/07 01:18:32;;;;;;;5.50;2.00;;;17.20;99.90;;;;;;2106133;28;20028;-68
2021/07/07 01:19:33;;;;;;;2.55;1.50;;;17.20;99.90;;;;;;2105915;28;20031;-68
2021/07/07 01:20:33;;;;;;;3.70;1.30;;;17.20;99.90;;;;;;2106185;28;20383;-68
2021/07/07 01:21:34;;;;;;;6.53;1.88;;;17.20;99.90;;;;;;2105183;28;20026;-68
2021/07/07 01:22:35;;;;;;;4.35;1.73;;;17.20;99.90;;;;;;2106334;28;20723;-68
2021/07/07 01:23:36;;;;;;;4.07;2.45;;;17.20;99.90;;;;;;2105988;28;20383;-68
2021/07/07 01:24:37;;;;;;;8.63;2.35;;;17.10;99.90;;;;;;2106116;28;20016;-68
2021/07/07 01:25:38;;;;;;;4.50;2.13;;;17.10;99.90;;;;;;2105934;28;20024;-68
2021/07/07 01:26:39;;;;;;;5.53;2.50;;;17.10;99.90;;;;;;2106062;28;20051;-68
2021/07/07 01:27:41;;;;;;;7.78;3.05;;;17.10;99.90;;;;;;2105881;28;20016;-68
2021/07/07 01:28:42;;;;;;;5.53;2.10;;;17.00;99.90;;;;;;2106122;28;20532;-68
2021/07/07 01:29:42;;;;;;;9.80;2.28;;;17.00;99.90;;;;;;2105965;28;20426;-68
2021/07/07 01:30:44;;;;;;;6.00;2.22;;;17.00;99.90;;;;;;2105999;28;20089;-68
2021/07/07 01:31:45;;;;;;;6.93;1.95;;;16.90;99.90;;;;;;2105501;28;20016;-68
2021/07/07 01:32:46;;;;;;;5.15;2.03;;;16.90;99.90;;;;;;2106131;28;20444;-68
2021/07/07 01:33:46;;;;;;;3.75;1.55;;;16.90;99.90;;;;;;2105327;28;20427;-68
2021/07/07 01:34:47;;;;;;;6.07;2.00;;;16.90;99.90;;;;;;2105048;28;20031;-68
2021/07/07 01:35:48;;;;;;;2.78;1.50;;;16.80;99.90;;;;;;2105977;28;20091;-68
2021/07/07 01:36:48;;;;;;;7.13;2.00;;;16.80;99.90;;;;;;2105975;28;20027;-68
2021/07/07 01:37:50;;;;;;;6.30;2.20;;;16.80;99.90;;;;;;2106028;28;20026;-68
2021/07/07 01:38:51;;;;;;;7.45;1.77;;;16.80;99.90;;;;;;2105838;28;20043;-68
2021/07/07 01:39:52;;;;;;;4.85;2.10;;;16.70;99.90;;;;;;2106087;28;20034;-68
2021/07/07 01:40:57;;;;;;;6.82;2.08;;;16.70;99.90;;;;;;2105757;28;20035;-68
2021/07/07 01:41:58;;;;;;;5.45;2.20;;;16.70;99.90;;;;;;2105622;28;20139;-68
2021/07/07 01:42:59;;;;;;;6.03;2.10;;;16.70;99.90;;;;;;2105066;28;20020;-68
2021/07/07 01:44:00;;;;;;;6.43;2.20;;;16.70;99.90;;;;;;2105389;28;20030;-68
2021/07/07 01:45:01;;;;;;;4.57;2.08;;;16.70;99.90;;;;;;2105872;28;20059;-68
2021/07/07 01:46:01;;;;;;;6.18;2.25;;;16.70;99.90;;;;;;2105571;28;20034;-68
2021/07/07 01:47:03;;;;;;;5.53;1.83;;;16.70;99.90;;;;;;2105905;28;20463;-68
2021/07/07 01:48:04;;;;;;;4.70;2.60;;;16.70;99.90;;;;;;2106082;28;20024;-68
2021/07/07 01:49:04;;;;;;;5.22;2.15;;;16.70;99.90;;;;;;2105603;28;20024;-68
2021/07/07 01:50:07;;;;;;;8.82;2.33;;;16.70;99.90;;;;;;2105992;28;20189;-68
2021/07/07 01:51:08;;;;;;;4.15;1.98;;;16.70;99.90;;;;;;2105640;28;20477;-68
2021/07/07 01:52:08;;;;;;;10.02;2.70;;;16.60;99.90;;;;;;2105476;28;20016;-68
2021/07/07 01:53:10;;;;;;;14.15;2.95;;;16.60;99.90;;;;;;2105681;28;20024;-68
2021/07/07 01:54:10;;;;;;;7.53;2.10;;;16.60;99.90;;;;;;2106002;28;20023;-68
2021/07/07 01:55:15;;;;;;;6.88;2.20;;;16.70;99.90;;;;;;2105537;28;20032;-68
2021/07/07 01:56:16;;;;;;;6.85;2.40;;;16.60;99.90;;;;;;2105735;28;20035;-68
2021/07/07 01:57:16;;;;;;;5.90;2.08;;;16.60;99.90;;;;;;2105577;28;20059;-68
2021/07/07 01:58:17;;;;;;;8.50;2.22;;;16.60;99.90;;;;;;2106030;28;20028;-68
2021/07/07 01:59:17;;;;;;;5.80;2.13;;;16.60;99.90;;;;;;2105711;28;20460;-68
2021/07/07 02:00:27;;;;;;;4.50;2.05;;;16.70;99.90;;;;;;2105784;28;20028;-68
2021/07/07 02:01:27;;;;;;;4.30;2.13;;;16.70;99.90;;;;;;2105282;28;20043;-68
2021/07/07 02:02:28;;;;;;;5.07;2.13;;;16.60;99.90;;;;;;2105787;28;20024;-68
2021/07/07 02:03:28;;;;;;;3.75;1.85;;;16.60;99.90;;;;;;2105707;28;20023;-68
2021/07/07 02:04:29;;;;;;;7.20;2.40;;;16.60;99.90;;;;;;2106090;28;20031;-68
2021/07/07 02:05:33;;;;;;;4.75;2.40;;;16.70;99.90;;;;;;2105176;28;20043;-68
2021/07/07 02:06:33;;;;;;;5.25;2.50;;;16.70;99.90;;;;;;2105301;28;20059;-68
2021/07/07 02:07:34;;;;;;;6.72;2.40;;;16.70;99.90;;;;;;2105640;28;20032;-68
2021/07/07 02:08:35;;;;;;;10.73;2.95;;;16.70;99.90;;;;;;2105828;28;20028;-68
2021/07/07 02:09:35;;;;;;;7.05;2.47;;;16.70;99.90;;;;;;2105818;28;20085;-68
2021/07/07 02:10:37;;;;;;;11.43;2.40;;;16.70;99.90;;;;;;2105726;28;20105;-68
2021/07/07 02:11:37;;;;;;;8.35;2.45;;;16.70;99.90;;;;;;2105017;28;20024;-70
2021/07/07 02:12:39;;;;;;;5.25;2.67;;;16.70;99.90;;;;;;2106042;28;20044;-68
2021/07/07 02:13:40;;;;;;;6.20;2.85;;;16.70;99.90;;;;;;2105684;28;20017;-68
2021/07/07 02:14:40;;;;;;;8.48;3.33;;;16.70;99.90;;;;;;2106156;28;20099;-68
2021/07/07 02:15:41;;;;;;;11.48;3.20;;;16.70;99.90;;;;;;2105649;28;20490;-68
2021/07/07 02:16:43;;;;;;;8.93;3.08;;;16.70;99.90;;;;;;2105540;28;20111;-68
2021/07/07 02:17:44;;;;;;;9.05;3.10;;;16.70;99.90;;;;;;2107227;28;20024;-68
2021/07/07 02:18:45;;;;;;;8.63;3.17;;;16.70;99.90;;;;;;2107554;28;20020;-68
2021/07/07 02:19:45;;;;;;;6.65;3.15;;;16.70;99.90;;;;;;2107382;28;20024;-68
2021/07/07 02:20:47;;;;;;;9.45;3.13;;;16.70;99.90;;;;;;2107559;28;20035;-68
2021/07/07 02:21:47;;;;;;;4.88;2.92;;;16.70;99.90;;;;;;2106888;28;20046;-68
2021/07/07 02:22:48;;;;;;;6.93;2.95;;;16.60;99.90;;;;;;2107443;28;20028;-68
2021/07/07 02:23:49;;;;;;;7.70;3.35;;;16.70;99.90;;;;;;2106756;28;20445;-68
2021/07/07 02:24:49;;;;;;;8.85;3.88;;;16.70;99.90;;;;;;2106608;28;20533;-68
2021/07/07 02:25:50;;;;;;;7.82;3.38;;;16.70;99.90;;;;;;2107726;28;20031;-68
2021/07/07 02:26:51;;;;;;;8.98;3.83;;;16.60;99.90;;;;;;2107367;28;20063;-68
2021/07/07 02:27:52;;;;;;;8.52;3.75;;;16.60;99.90;;;;;;2107414;28;20025;-68
2021/07/07 02:28:53;;;;;;;9.70;3.95;;;16.70;99.90;;;;;;2107376;28;20027;-68
2021/07/07 02:29:53;;;;;;;8.23;3.85;;;16.60;99.90;;;;;;2107603;28;20020;-68
2021/07/07 02:30:55;;;;;;;8.23;3.78;;;16.70;99.90;;;;;;2107238;28;20032;-68
2021/07/07 02:31:55;;;;;;;6.15;3.42;;;16.70;99.90;;;;;;2106865;28;20382;-68
2021/07/07 02:32:57;;;;;;;7.50;4.10;;;16.60;99.90;;;;;;2107165;28;20085;-68
2021/07/07 02:33:58;;;;;;;12.38;4.28;;;16.60;99.90;;;;;;2107326;28;20039;-68
2021/07/07 02:34:58;;;;;;;10.48;4.35;;;16.60;99.90;;;;;;2107263;28;20016;-68
2021/07/07 02:35:59;;;;;;;6.63;3.67;;;16.60;99.90;;;;;;2107590;28;20072;-68
2021/07/07 02:37:00;;;;;;;8.88;3.35;;;16.60;99.90;;;;;;2107384;28;20031;-68
2021/07/07 02:38:03;;;;;;;7.25;3.88;;;16.60;99.90;;;;;;2107389;28;20028;-70
2021/07/07 02:39:04;;;;;;;9.70;4.30;;;16.60;99.90;;;;;;2107363;28;20032;-68
2021/07/07 02:40:07;;;;;;;9.55;3.60;;;16.60;99.90;;;;;;2107551;28;20039;-68
2021/07/07 02:41:07;;;;;;;7.43;3.55;;;16.60;99.90;;;;;;2107138;28;21008;-70
2021/07/07 02:42:08;;;;;;;11.07;3.85;;;16.60;99.90;;;;;;2106730;28;20106;-68
2021/07/07 02:43:09;;;;;;;9.27;3.45;;;16.60;99.90;;;;;;2107132;28;20053;-68
2021/07/07 02:44:10;;;;;;;7.57;3.40;;;16.60;99.90;;;;;;2107235;28;20024;-68
2021/07/07 02:45:14;;;;;;;8.32;3.28;;;16.60;99.90;;;;;;2107221;28;20028;-68
2021/07/07 02:46:14;;;;;;;8.90;3.15;;;16.60;99.90;;;;;;2106573;28;20078;-68
2021/07/07 02:47:15;;;;;;;6.95;3.00;;;16.60;99.90;;;;;;2098015;28;20153;-68
2021/07/07 02:48:15;;;;;;;4.85;2.70;;;16.60;99.90;;;;;;2106964;28;20063;-68
2021/07/07 02:49:16;;;;;;;9.00;3.08;;;16.60;99.90;;;;;;2102399;28;20475;-68
2021/07/07 02:50:19;;;;;;;7.93;3.22;;;16.60;99.90;;;;;;2107453;28;20028;-68
2021/07/07 02:51:19;;;;;;;7.45;3.53;;;16.60;99.90;;;;;;2107078;28;20028;-69
2021/07/07 02:52:20;;;;;;;6.95;3.03;;;16.60;99.90;;;;;;2106667;28;20034;-68
2021/07/07 02:53:21;;;;;;;7.63;3.03;;;16.50;99.90;;;;;;2107250;28;20024;-68
2021/07/07 02:54:21;;;;;;;5.65;3.15;;;16.50;99.90;;;;;;2107264;28;20031;-68
2021/07/07 02:55:22;;;;;;;7.80;3.10;;;16.50;99.90;;;;;;2107000;28;20032;-68
2021/07/07 02:56:23;;;;;;;9.30;2.55;;;16.50;99.90;;;;;;2107026;28;20024;-68
2021/07/07 02:57:24;;;;;;;6.78;2.75;;;16.50;99.90;;;;;;2107047;28;20016;-68
2021/07/07 02:58:24;;;;;;;5.28;2.75;;;16.50;99.90;;;;;;2107248;28;20021;-68
2021/07/07 02:59:25;;;;;;;6.85;2.67;;;16.50;99.90;;;;;;2107183;28;20455;-68
2021/07/07 03:00:38;;;;;;;7.70;2.65;;;16.50;99.90;;;;;;2107235;28;20099;-70
2021/07/07 03:01:39;;;;;;;8.90;2.95;;;16.50;99.90;;;;;;2106468;28;20089;-70
2021/07/07 03:02:39;;;;;;;9.02;3.13;;;16.50;99.90;;;;;;2107220;28;20123;-69
2021/07/07 03:03:41;;;;;;;7.72;2.65;;;16.50;99.90;;;;;;2106975;28;20110;-70
2021/07/07 03:04:42;;;;;;;7.75;2.55;;;16.50;99.90;;;;;;2107371;28;20032;-68
2021/07/07 03:05:50;;;;;;;11.52;3.10;;;16.50;99.90;;;;;;2106830;28;20055;-68
2021/07/07 03:06:50;;;;;;;4.57;2.38;;;16.50;99.90;;;;;;2106853;28;20135;-68
2021/07/07 03:07:51;;;;;;;7.65;2.83;;;16.50;99.90;;;;;;2107072;28;20032;-68
2021/07/07 03:08:51;;;;;;;6.35;2.45;;;16.50;99.90;;;;;;2107069;28;20050;-68
2021/07/07 03:09:52;;;;;;;7.38;2.80;;;16.50;99.90;;;;;;2107062;28;20025;-68
2021/07/07 03:10:54;;;;;;;5.97;2.60;;;16.50;99.90;;;;;;2107136;28;20055;-68
2021/07/07 03:11:54;;;;;;;6.63;2.47;;;16.50;99.90;;;;;;2105437;28;20467;-68
2021/07/07 03:12:55;;;;;;;6.43;2.95;;;16.50;99.90;;;;;;2106587;28;20085;-68
2021/07/07 03:13:57;;;;;;;9.85;2.33;;;16.60;99.90;;;;;;2106880;28;20024;-68
2021/07/07 03:14:57;;;;;;;5.65;2.75;;;16.50;99.90;;;;;;2107094;28;20019;-68
2021/07/07 03:15:58;;;;;;;8.50;2.40;;;16.50;99.90;;;;;;2106818;28;20022;-68
2021/07/07 03:16:59;;;;;;;5.75;2.42;;;16.50;99.90;;;;;;2106991;28;20376;-68
2021/07/07 03:17:59;;;;;;;9.80;3.05;;;16.50;99.90;;;;;;2107001;28;20048;-68
2021/07/07 03:19:00;;;;;;;6.88;2.72;;;16.50;99.90;;;;;;2106930;28;20035;-68
2021/07/07 03:20:01;;;;;;;5.95;2.30;;;16.50;99.90;;;;;;2107228;28;20027;-68
2021/07/07 03:21:02;;;;;;;7.95;2.55;;;16.50;99.90;;;;;;2107126;28;20517;-68
2021/07/07 03:22:03;;;;;;;9.40;2.90;;;16.50;99.90;;;;;;2106629;28;20097;-68
2021/07/07 03:23:06;;;;;;;9.52;2.53;;;16.50;99.90;;;;;;2106996;28;20069;-68
2021/07/07 03:24:09;;;;;;;7.88;2.70;;;16.50;99.90;;;;;;2107161;28;20034;-68
2021/07/07 03:25:09;;;;;;;11.05;2.53;;;16.40;99.90;;;;;;2106563;28;20024;-68
2021/07/07 03:26:10;;;;;;;6.20;2.30;;;16.40;99.90;;;;;;2106990;28;20024;-68
2021/07/07 03:27:11;;;;;;;7.90;2.35;;;16.40;99.90;;;;;;2106727;28;20139;-68
2021/07/07 03:28:12;;;;;;;6.32;2.55;;;16.40;99.90;;;;;;2107003;28;20360;-68
2021/07/07 03:29:13;;;;;;;7.55;2.88;;;16.40;99.90;;;;;;2105700;28;20058;-68
2021/07/07 03:30:13;;;;;;;8.20;2.50;;;16.40;99.90;;;;;;2106959;28;20012;-68
2021/07/07 03:31:14;;;;;;;6.65;2.33;;;16.40;99.90;;;;;;2106749;28;20020;-68
2021/07/07 03:32:15;;;;;;;5.15;2.35;;;16.50;99.90;;;;;;2106468;28;20522;-68
2021/07/07 03:33:15;;;;;;;9.05;2.53;;;16.50;99.90;;;;;;2106764;28;20055;-68
2021/07/07 03:34:16;;;;;;;5.80;2.08;;;16.50;99.90;;;;;;2107033;28;20095;-68
2021/07/07 03:35:16;;;;;;;9.32;2.60;;;16.50;99.90;;;;;;2106976;28;20471;-68
2021/07/07 03:36:19;;;;;;;9.57;2.83;;;16.50;99.90;;;;;;2106846;28;20024;-68
2021/07/07 03:37:19;;;;;;;11.10;2.90;;;16.50;99.90;;;;;;2106833;28;20083;-68
2021/07/07 03:38:20;;;;;;;8.07;2.15;;;16.50;99.90;;;;;;2106944;28;20070;-68
2021/07/07 03:39:21;;;;;;;9.25;2.40;;;16.50;99.90;;;;;;2106938;28;20044;-68
2021/07/07 03:40:22;;;;;;;10.32;2.92;;;16.50;99.90;;;;;;2106287;28;20038;-68
2021/07/07 03:41:22;;;;;;;7.18;2.70;;;16.50;99.90;;;;;;2105883;28;20028;-68
2021/07/07 03:42:23;;;;;;;4.85;2.17;;;16.50;99.90;;;;;;2106340;28;20052;-68
2021/07/07 03:43:23;;;;;;;5.50;2.20;;;16.50;99.90;;;;;;2106696;28;20028;-68
2021/07/07 03:44:24;;;;;;;8.05;2.22;;;16.50;99.90;;;;;;2106943;28;20035;-68
2021/07/07 03:45:26;;;;;;;5.78;2.65;;;16.50;99.90;;;;;;2106622;28;20491;-68
2021/07/07 03:46:26;;;;;;;8.35;2.90;;;16.50;99.90;;;;;;2107426;28;20054;-68
2021/07/07 03:47:27;;;;;;;8.82;2.80;;;16.50;99.90;;;;;;2106522;28;20036;-68
2021/07/07 03:48:27;;;;;;;9.15;2.45;;;16.50;99.90;;;;;;2106975;28;20030;-68
2021/07/07 03:49:28;;;;;;;7.22;2.70;;;16.50;99.90;;;;;;2106742;28;20036;-68
2021/07/07 03:50:29;;;;;;;10.30;2.72;;;16.50;99.90;;;;;;2106951;28;20477;-68
2021/07/07 03:51:29;;;;;;;11.27;2.90;;;16.50;99.90;;;;;;2106319;28;20078;-68
2021/07/07 03:52:30;;;;;;;7.47;3.08;;;16.50;99.90;;;;;;2106586;28;20550;-68
2021/07/07 03:53:31;;;;;;;6.10;2.78;;;16.50;99.90;;;;;;2106545;28;20410;-68
2021/07/07 03:54:32;;;;;;;6.32;2.70;;;16.50;99.90;;;;;;2106861;28;20407;-68
2021/07/07 03:55:34;;;;;;;12.85;2.80;;;16.50;99.90;;;;;;2106606;28;20086;-68
2021/07/07 03:56:34;;;;;;;7.47;2.53;;;16.50;99.90;;;;;;2106906;28;20056;-68
2021/07/07 03:57:35;;;;;;;6.95;2.88;;;16.50;99.90;;;;;;2106662;28;20031;-68
2021/07/07 03:58:35;;;;;;;4.47;2.28;;;16.50;99.90;;;;;;2106424;28;20154;-68
2021/07/07 03:59:36;;;;;;;8.65;2.20;;;16.50;99.90;;;;;;2106821;28;20024;-69
2021/07/07 04:00:36;;;;;;;3.95;2.25;;;16.50;99.90;;;;;;2106630;28;20056;-68
2021/07/07 04:01:37;;;;;;;7.75;2.58;;;16.50;99.90;;;;;;2106219;28;20020;-68
2021/07/07 04:02:38;;;;;;;6.07;2.65;;;16.60;99.90;;;;;;2106270;28;20576;-68
2021/07/07 04:03:39;;;;;;;8.35;2.45;;;16.60;99.90;;;;;;2106663;28;20084;-69
2021/07/07 04:04:42;;;;;;;8.68;2.40;;;16.60;99.90;;;;;;2106701;28;20514;-69
2021/07/07 04:05:43;;;;;;;5.55;2.35;;;16.60;99.90;;;;;;2106803;28;20016;-69
2021/07/07 04:06:45;;;;;;;7.60;2.60;;;16.60;99.90;;;;;;2106574;28;20055;-69
2021/07/07 04:07:46;;;;;;;9.25;2.70;;;16.60;99.90;;;;;;2106712;28;20113;-69
2021/07/07 04:08:46;;;;;;;10.48;2.88;;;16.60;99.90;;;;;;2106329;28;20077;-69
2021/07/07 04:09:47;;;;;;;9.13;2.78;;;16.60;99.90;;;;;;2106612;28;20406;-69
2021/07/07 04:10:47;;;;;;;8.15;2.35;;;16.60;99.90;;;;;;2106315;28;20020;-69
2021/07/07 04:11:48;;;;;;;8.88;2.28;;;16.60;99.90;;;;;;2106164;28;20102;-69
2021/07/07 04:12:49;;;;;;;10.80;3.28;;;16.60;99.90;;;;;;2106536;28;20020;-69
2021/07/07 04:13:49;;;;;;;5.20;2.42;;;16.60;99.90;;;;;;2106370;28;20028;-68
2021/07/07 04:14:50;;;;;;;10.55;2.92;;;16.60;99.90;;;;;;2106467;28;20027;-68
2021/07/07 04:15:51;;;;;;;7.20;2.88;;;16.70;99.90;;;;;;2106599;28;20067;-69
2021/07/07 04:16:55;;;;;;;5.88;1.92;;;16.70;99.90;;;;;;2106657;28;20449;-68
2021/07/07 04:17:56;;;;;;;7.43;2.53;;;16.80;99.90;;;;;;2106439;28;20024;-69
2021/07/07 04:18:57;;;;;;;6.97;2.45;;;16.90;99.90;;;;;;2106514;28;20024;-68
2021/07/07 04:19:57;;;;;;;9.18;2.80;;;17.00;99.90;;;;;;2105724;28;20032;-68
2021/07/07 04:20:58;;;;;;;6.32;2.20;;;17.20;99.90;;;;;;2105990;28;20035;-68
2021/07/07 04:21:58;;;;;;;6.20;2.10;;;17.30;99.90;;;;;;2105819;28;20077;-69
2021/07/07 04:22:59;;;;;;;6.80;2.50;;;17.40;99.90;;;;;;2106308;28;20028;-69
2021/07/07 04:23:59;;;;;;;6.97;2.83;;;17.50;99.90;;;;;;2106506;28;20027;-69
2021/07/07 04:25:00;;;;;;;9.57;2.60;;;17.60;99.90;;;;;;2106287;28;20028;-69
2021/07/07 04:26:01;;;;;;;8.70;2.67;;;17.60;99.90;;;;;;2106569;28;20049;-69
2021/07/07 04:27:02;;;;;;;8.93;2.45;;;17.70;99.90;;;;;;2106268;28;20063;-69
2021/07/07 04:28:06;;;;;;;8.90;2.50;;;17.80;99.90;;;;;;2106578;28;20103;-69
2021/07/07 04:29:06;;;;;;;5.55;2.42;;;18.00;99.90;;;;;;2106020;28;20121;-69
2021/07/07 04:30:10;;;;;;;10.52;2.65;;;18.10;99.90;;;;;;2106528;28;20058;-69
2021/07/07 04:31:11;;;;;;;4.22;2.28;;;18.30;99.90;;;;;;2105653;28;20013;-69
2021/07/07 04:32:11;;;;;;;7.53;2.40;;;18.50;99.90;;;;;;2105515;28;20049;-69
2021/07/07 04:33:12;;;;;;;5.47;2.17;;;18.60;99.90;;;;;;2106178;28;20020;-69
2021/07/07 04:34:13;;;;;;;6.90;1.90;;;18.70;99.90;;;;;;2106639;28;20371;-69
2021/07/07 04:35:16;;;;;;;10.07;2.50;;;18.70;99.90;;;;;;2106330;28;20027;-69
2021/07/07 04:36:17;;;;;;;10.70;2.30;;;18.70;99.90;;;;;;2102418;28;20016;-69
2021/07/07 04:37:18;;;;;;;7.55;2.60;;;18.70;99.90;;;;;;2097881;28;20017;-69
2021/07/07 04:38:18;;;;;;;5.95;1.90;;;18.80;99.90;;;;;;2112328;28;20106;-69
2021/07/07 04:39:19;;;;;;;5.18;2.17;;;18.80;99.90;;;;;;2114838;27;20023;-69
2021/07/07 04:40:21;;;;;;;5.85;1.90;;;18.80;99.90;;;;;;2114604;28;20028;-69
2021/07/07 04:41:22;;;;;;;6.15;1.90;;;18.80;99.90;;;;;;2114631;28;20364;-69
2021/07/07 04:42:22;;;;;;;7.97;2.38;;;18.90;99.90;;;;;;2114350;28;20045;-69
2021/07/07 04:43:23;;;;;;;3.85;2.00;;;18.90;99.90;;;;;;2114957;28;20023;-69
2021/07/07 04:44:24;;;;;;;3.58;2.05;;;18.90;99.90;;;;;;2114563;28;20024;-69
2021/07/07 04:45:24;;;;;;;5.57;2.00;;;19.00;99.90;;;;;;2114832;28;20104;-69
2021/07/07 04:46:25;;;;;;;7.07;2.25;;;19.00;99.90;;;;;;2114529;28;20107;-69
2021/07/07 04:47:25;;;;;;;9.65;2.38;;;19.00;99.90;;;;;;2114784;28;20169;-69
2021/07/07 04:48:26;;;;;;;4.85;1.98;;;19.10;99.90;;;;;;2114620;28;20047;-69
2021/07/07 04:49:27;;;;;;;8.35;1.88;;;19.10;99.90;;;;;;2114794;28;20130;-69
2021/07/07 04:50:27;;;;;;;5.28;1.77;;;19.20;99.90;;;;;;2114478;28;20462;-69
2021/07/07 04:51:29;;;;;;;6.60;2.03;;;19.20;99.90;;;;;;2114572;28;20633;-69
2021/07/07 04:52:30;;;;;;;5.65;2.20;;;19.30;99.90;;;;;;2114312;28;20027;-69
2021/07/07 04:53:30;;;;;;;5.18;1.75;;;19.40;99.90;;;;;;2114695;28;20035;-69
2021/07/07 04:54:34;;;;;;;7.75;2.08;;;19.40;99.90;;;;;;2114609;28;20542;-69
2021/07/07 04:55:35;;;;;;;5.32;1.88;;;19.50;99.90;;;;;;2112557;28;20380;-69
2021/07/07 04:56:36;;;;;;;6.80;2.10;;;19.50;99.90;;;;;;2106060;28;20032;-69
2021/07/07 04:57:43;;;;;;;6.03;1.65;;;19.60;99.90;;;;;;2106228;28;20031;-69
2021/07/07 04:58:43;;;;;;;7.55;2.17;;;19.70;99.90;;;;;;2106158;28;20024;-69
2021/07/07 04:59:44;;;;;;;3.92;1.77;;;19.70;99.90;;;;;;2105833;28;20024;-69
2021/07/07 05:00:44;;;;;;;7.05;1.92;;;19.80;99.90;;;;;;2106036;28;20020;-69
2021/07/07 05:01:45;;;;;;;8.75;2.88;;;19.90;99.90;;;;;;2105805;28;20040;-69
2021/07/07 05:02:46;;;;;;;5.65;2.50;;;20.00;99.90;;;;;;2105962;28;20454;-69
2021/07/07 05:03:47;;;;;;;5.43;2.05;;;20.00;99.90;;;;;;2106250;28;20056;-69
2021/07/07 05:04:50;;;;;;;5.10;2.25;;;20.10;99.90;;;;;;2106259;28;20041;-69
2021/07/07 05:05:51;;;;;;;8.98;1.90;;;20.20;99.90;;;;;;2106310;28;20145;-69
2021/07/07 05:06:51;;;;;;;10.20;2.60;;;20.30;99.90;;;;;;2106161;28;20028;-69
2021/07/07 05:07:52;;;;;;;3.28;1.80;;;20.30;99.90;;;;;;2106036;28;20395;-69
2021/07/07 05:08:53;;;;;;;5.43;1.98;;;20.40;99.90;;;;;;2105921;28;20020;-69
2021/07/07 05:09:54;;;;;;;5.70;1.85;;;20.50;99.90;;;;;;2106002;28;20024;-69
2021/07/07 05:10:55;;;;;;;8.38;2.20;;;20.50;99.90;;;;;;2106134;28;20032;-69
2021/07/07 05:11:55;;;;;;;5.00;2.08;;;20.60;99.90;;;;;;2105544;28;20023;-69
2021/07/07 05:12:57;;;;;;;6.57;1.85;;;20.60;99.90;;;;;;2105958;28;20032;-69
2021/07/07 05:13:58;;;;;;;6.05;2.00;;;20.70;99.90;;;;;;2106324;28;20486;-69
2021/07/07 05:15:00;;;;;;;4.45;1.77;;;20.70;99.90;;;;;;2105959;28;20669;-69
2021/07/07 05:16:00;;;;;;;9.88;2.00;;;20.80;99.90;;;;;;2106207;28;20027;-69
2021/07/07 05:17:01;;;;;;;5.15;1.92;;;20.90;99.90;;;;;;2106012;28;20028;-69
2021/07/07 05:18:01;;;;;;;6.55;1.88;;;20.90;99.90;;;;;;2106213;28;20030;-69